Time;durP1;ratioP1;P1;durP2;ratioP2;P2;SDS_P1;SDS_P2;PMS_P1;PMS_P2;Temp;Humidity;BMP_temperature;BMP_pressure;BME280_temperature;BME280_humidity;BME280_pressure;Samples;Min_cycle;Max_cycle;Signal;HPM_P1;HPM_P2
2023/03/30 00:10:02;;;;;;;17.30;2.38;;;11.80;99.90;;;;;;20926336;28;20399;-81
2023/03/30 00:20:07;;;;;;;12.30;2.05;;;12.00;99.90;;;;;;20925717;28;20515;-78
2023/03/30 00:30:12;;;;;;;11.50;2.00;;;12.10;99.90;;;;;;20926797;28;20479;-80
2023/03/30 00:40:17;;;;;;;8.77;1.52;;;11.50;99.90;;;;;;20928616;28;20494;-80
2023/03/30 00:50:20;;;;;;;8.88;2.42;;;11.60;99.90;;;;;;20889744;28;20037;-80
2023/03/30 01:00:22;;;;;;;6.90;1.80;;;12.00;99.90;;;;;;20842747;28;20104;-81
2023/03/30 01:10:24;;;;;;;10.52;2.00;;;11.80;99.90;;;;;;20840554;28;20032;-79
2023/03/30 01:20:35;;;;;;;6.30;1.63;;;11.80;99.90;;;;;;20919435;28;20395;-79
2023/03/30 01:30:48;;;;;;;6.85;2.45;;;11.60;99.90;;;;;;20923438;28;20035;-79
2023/03/30 01:40:58;;;;;;;9.57;2.35;;;11.20;99.90;;;;;;20904318;28;20033;-79
2023/03/30 01:51:05;;;;;;;14.10;2.93;;;11.00;99.90;;;;;;20921300;28;20037;-80
2023/03/30 02:01:07;;;;;;;8.98;2.17;;;11.20;99.90;;;;;;20931625;28;20048;-80
2023/03/30 02:11:08;;;;;;;10.88;2.30;;;11.10;99.90;;;;;;20937911;28;20041;-80
2023/03/30 02:21:10;;;;;;;10.13;2.45;;;11.00;99.90;;;;;;20937152;28;20053;-79
2023/03/30 02:31:14;;;;;;;18.17;2.78;;;11.00;99.90;;;;;;20936824;28;20115;-79
2023/03/30 02:41:18;;;;;;;14.32;3.17;;;10.90;99.90;;;;;;20923656;28;20082;-80
2023/03/30 02:51:44;;;;;;;16.83;2.58;;;10.90;99.90;;;;;;20942271;28;20039;-80
2023/03/30 03:01:55;;;;;;;9.27;2.22;;;10.90;99.90;;;;;;20935588;28;20452;-79
2023/03/30 03:11:56;;;;;;;19.00;3.43;;;11.00;99.90;;;;;;20933081;28;20025;-80
2023/03/30 03:22:00;;;;;;;11.18;2.45;;;11.00;99.90;;;;;;20933288;28;20518;-79
2023/03/30 03:32:04;;;;;;;13.73;2.78;;;11.00;99.90;;;;;;20934678;28;20092;-80
2023/03/30 03:42:13;;;;;;;15.07;2.83;;;11.10;99.90;;;;;;20915265;28;20035;-77
2023/03/30 03:52:26;;;;;;;6.95;2.72;;;11.20;99.90;;;;;;20890441;28;20030;-78
2023/03/30 04:02:27;;;;;;;14.80;2.50;;;11.20;99.90;;;;;;20836411;28;20451;-77
2023/03/30 04:12:29;;;;;;;11.27;2.40;;;11.20;99.90;;;;;;20847870;28;20032;-77
2023/03/30 04:22:56;;;;;;;11.77;2.80;;;11.10;99.90;;;;;;20915369;28;20029;-77
2023/03/30 04:33:03;;;;;;;13.73;2.45;;;11.30;99.90;;;;;;20916836;28;20120;-77
2023/03/30 04:43:23;;;;;;;14.35;2.45;;;11.20;99.90;;;;;;20889223;28;20037;-78
2023/03/30 04:53:39;;;;;;;15.57;4.90;;;11.30;99.90;;;;;;20929919;22;20427;-76
2023/03/30 05:03:46;;;;;;;7.57;2.65;;;11.30;99.90;;;;;;20882914;28;20099;-79
2023/03/30 05:14:13;;;;;;;17.73;4.15;;;11.30;99.90;;;;;;20881264;28;20047;-77
2023/03/30 05:24:37;;;;;;;17.80;3.13;;;11.10;99.90;;;;;;20991157;28;20051;-80
2023/03/30 05:35:05;;;;;;;15.68;3.28;;;11.20;99.90;;;;;;20971227;28;20580;-79
2023/03/30 05:45:24;;;;;;;9.38;2.65;;;11.10;99.90;;;;;;20941925;28;20025;-79
2023/03/30 05:55:51;;;;;;;14.10;2.85;;;11.10;99.90;;;;;;20872792;28;20072;-79
2023/03/30 06:06:11;;;;;;;10.82;2.35;;;11.10;99.90;;;;;;20897924;28;20041;-79
2023/03/30 06:16:12;;;;;;;12.90;2.72;;;11.20;99.90;;;;;;20955953;28;20032;-80
2023/03/30 06:26:13;;;;;;;19.53;3.00;;;11.10;99.90;;;;;;21011831;28;20029;-80
2023/03/30 06:36:14;;;;;;;25.27;3.17;;;11.20;99.90;;;;;;21012077;28;20036;-80
2023/03/30 06:46:17;;;;;;;17.48;3.50;;;11.40;99.90;;;;;;21009991;28;20127;-79
2023/03/30 06:56:21;;;;;;;18.02;5.10;;;11.50;99.90;;;;;;20969181;28;20039;-80
2023/03/30 07:06:41;;;;;;;16.98;4.53;;;11.60;99.90;;;;;;20921142;28;20029;-81
2023/03/30 07:16:42;;;;;;;15.17;3.33;;;11.50;99.90;;;;;;20941801;28;20082;-80
2023/03/30 07:26:43;;;;;;;12.32;3.55;;;11.60;99.90;;;;;;21007898;28;20032;-80
2023/03/30 07:36:44;;;;;;;13.97;3.07;;;11.90;99.90;;;;;;21009712;28;20132;-80
2023/03/30 07:46:45;;;;;;;23.02;2.90;;;12.10;99.90;;;;;;21007879;28;20032;-80
2023/03/30 07:56:52;;;;;;;15.27;3.33;;;12.70;99.90;;;;;;21007350;28;20052;-80
2023/03/30 08:06:54;;;;;;;13.18;2.78;;;13.30;99.90;;;;;;21005356;28;20035;-81
2023/03/30 08:16:57;;;;;;;16.23;3.25;;;13.70;99.90;;;;;;20954950;28;20040;-81
2023/03/30 08:26:58;;;;;;;13.00;3.00;;;13.90;99.90;;;;;;20923024;28;20032;-81
2023/03/30 08:36:58;;;;;;;13.63;2.87;;;14.30;99.90;;;;;;20902610;28;20467;-80
2023/03/30 08:47:02;;;;;;;11.57;2.33;;;14.80;99.90;;;;;;20907655;28;20036;-81
2023/03/30 08:57:03;;;;;;;18.35;2.35;;;14.70;99.90;;;;;;20921332;28;20033;-80
2023/03/30 09:07:35;;;;;;;11.27;3.27;;;14.40;99.90;;;;;;20929607;28;20064;-80
2023/03/30 09:18:00;;;;;;;10.37;2.53;;;13.60;99.90;;;;;;20976293;28;20040;-80
2023/03/30 09:28:28;;;;;;;12.60;3.03;;;12.60;99.90;;;;;;21029423;28;20371;-79
2023/03/30 09:38:31;;;;;;;8.02;2.92;;;12.30;99.90;;;;;;21027909;28;20502;-79
2023/03/30 09:48:46;;;;;;;15.88;3.40;;;12.20;99.90;;;;;;20963390;28;20376;-79
2023/03/30 09:58:47;;;;;;;11.07;4.05;;;12.20;99.90;;;;;;20943697;28;20033;-79
2023/03/30 10:08:48;;;;;;;12.77;3.70;;;12.50;99.90;;;;;;20941806;28;20035;-79
2023/03/30 10:18:52;;;;;;;19.20;5.33;;;12.50;99.90;;;;;;21002753;28;20029;-78
2023/03/30 10:28:56;;;;;;;14.48;4.65;;;12.10;99.90;;;;;;21009926;28;20032;-79
2023/03/30 10:39:22;;;;;;;15.32;4.97;;;12.00;99.90;;;;;;21012474;28;20029;-79
2023/03/30 10:50:01;;;;;;;10.70;3.85;;;12.20;99.90;;;;;;20902080;28;20041;-78
2023/03/30 11:00:26;;;;;;;8.27;3.70;;;12.40;99.90;;;;;;20898906;23;20045;-79
2023/03/30 11:10:46;;;;;;;17.00;4.68;;;12.30;99.90;;;;;;20933711;28;20037;-79
2023/03/30 11:21:19;;;;;;;21.58;4.75;;;12.40;99.90;;;;;;20977631;28;20124;-80
2023/03/30 11:31:39;;;;;;;17.77;4.90;;;12.50;99.90;;;;;;21019300;28;20060;-80
2023/03/30 11:41:44;;;;;;;13.52;5.05;;;12.60;99.90;;;;;;21026168;28;20033;-80
2023/03/30 11:51:59;;;;;;;16.45;5.70;;;12.40;99.90;;;;;;21018255;28;20111;-81
2023/03/30 12:02:22;;;;;;;20.05;5.97;;;12.30;99.90;;;;;;21016158;28;20032;-80
2023/03/30 12:12:31;;;;;;;19.42;5.72;;;12.00;99.90;;;;;;21013644;28;20491;-79
2023/03/30 12:22:47;;;;;;;10.45;4.70;;;12.10;99.90;;;;;;21016035;28;20035;-79
2023/03/30 12:33:02;;;;;;;14.00;4.38;;;12.40;99.90;;;;;;21016963;28;20032;-79
2023/03/30 12:43:22;;;;;;;13.40;4.78;;;12.50;99.90;;;;;;21015998;28;20032;-78
2023/03/30 12:53:50;;;;;;;10.90;4.10;;;13.00;99.90;;;;;;21005482;28;20102;-79
2023/03/30 13:03:59;;;;;;;13.73;3.80;;;13.10;99.90;;;;;;21011967;28;20036;-79
2023/03/30 13:14:34;;;;;;;19.35;3.75;;;13.80;99.90;;;;;;21023249;28;20033;-79
2023/03/30 13:24:58;;;;;;;8.15;3.05;;;15.10;99.90;;;;;;20973845;28;20052;-79
2023/03/30 13:35:07;;;;;;;10.40;3.78;;;15.50;99.90;;;;;;21017293;28;20051;-80
2023/03/30 13:45:26;;;;;;;7.85;2.72;;;14.70;99.90;;;;;;21029474;28;20507;-82
2023/03/30 13:55:48;;;;;;;9.10;2.40;;;14.70;99.90;;;;;;21046005;28;20129;-81
2023/03/30 14:05:51;;;;;;;9.37;2.13;;;15.60;99.90;;;;;;21048031;28;20043;-80
2023/03/30 14:15:53;;;;;;;7.28;2.65;;;15.60;99.90;;;;;;21013261;28;20031;-81
2023/03/30 14:26:01;;;;;;;3.72;1.60;;;15.50;99.90;;;;;;21014178;28;20021;-81
2023/03/30 14:36:02;;;;;;;9.13;1.90;;;15.30;99.90;;;;;;21020969;28;20146;-81
2023/03/30 14:46:06;;;;;;;7.60;2.13;;;15.30;99.90;;;;;;21021364;28;20474;-80
2023/03/30 14:56:09;;;;;;;4.88;2.00;;;15.40;99.90;;;;;;21016320;28;20044;-79
2023/03/30 15:06:19;;;;;;;9.93;2.10;;;16.00;99.90;;;;;;20996117;28;20037;-78
2023/03/30 15:16:27;;;;;;;5.20;2.30;;;15.80;99.90;;;;;;20976070;28;20449;-79
2023/03/30 15:26:28;;;;;;;4.82;2.15;;;15.80;99.90;;;;;;21003575;28;20028;-78
2023/03/30 15:36:39;;;;;;;6.20;2.63;;;15.80;99.90;;;;;;21004150;28;20071;-78
2023/03/30 15:46:40;;;;;;;6.57;2.03;;;15.80;99.90;;;;;;21004463;28;20033;-79
2023/03/30 15:57:15;;;;;;;8.50;3.43;;;15.90;99.90;;;;;;21004460;28;20028;-77
2023/03/30 16:07:21;;;;;;;6.88;1.95;;;15.80;99.90;;;;;;20978282;28;20081;-78
2023/03/30 16:17:22;;;;;;;4.65;1.92;;;15.60;99.90;;;;;;20993836;28;20502;-79
2023/03/30 16:27:23;;;;;;;5.27;2.07;;;15.50;99.90;;;;;;20926354;28;20036;-80
2023/03/30 16:37:24;;;;;;;9.17;2.00;;;15.40;99.90;;;;;;20925405;28;20413;-80
2023/03/30 16:47:26;;;;;;;4.32;1.63;;;15.10;99.90;;;;;;20924543;28;20029;-79
2023/03/30 16:57:26;;;;;;;12.23;1.70;;;15.00;99.90;;;;;;20924511;28;20057;-79
2023/03/30 17:07:27;;;;;;;6.30;1.63;;;14.80;99.90;;;;;;20894169;23;20045;-79
2023/03/30 17:17:28;;;;;;;6.40;1.53;;;14.70;99.90;;;;;;20817188;28;20037;-78
2023/03/30 17:27:29;;;;;;;5.67;1.57;;;14.70;99.90;;;;;;20792805;28;20087;-79
2023/03/30 17:37:30;;;;;;;7.50;1.60;;;14.50;99.90;;;;;;20791113;28;20037;-79
2023/03/30 17:47:31;;;;;;;3.80;1.33;;;14.30;99.90;;;;;;20805199;28;20096;-79
2023/03/30 17:57:31;;;;;;;7.63;1.57;;;14.20;99.90;;;;;;20802309;28;20037;-79
2023/03/30 18:07:32;;;;;;;7.37;2.07;;;14.10;99.90;;;;;;20795382;28;20093;-78
2023/03/30 18:17:34;;;;;;;6.15;1.85;;;14.30;99.90;;;;;;20787092;28;20526;-78
2023/03/30 18:27:35;;;;;;;4.70;1.90;;;14.30;99.90;;;;;;20798236;28;20022;-77
2023/03/30 18:37:36;;;;;;;6.55;1.58;;;14.10;99.90;;;;;;20783695;28;20026;-79
2023/03/30 18:47:38;;;;;;;4.80;1.63;;;13.90;99.90;;;;;;20824367;28;20038;-78
2023/03/30 18:57:39;;;;;;;;;;;13.80;99.90;;;;;;20826122;28;20377;-77
2023/03/30 19:07:40;;;;;;;12.88;2.88;;;13.60;99.90;;;;;;20779222;28;20367;-77
2023/03/30 19:17:41;;;;;;;15.20;6.30;;;13.50;99.90;;;;;;20802294;28;20033;-78
2023/03/30 19:27:43;;;;;;;8.70;3.10;;;13.10;99.90;;;;;;20830969;28;20124;-79
2023/03/30 19:37:45;;;;;;;13.18;3.25;;;12.80;99.90;;;;;;20842379;28;20392;-77
2023/03/30 19:47:47;;;;;;;11.07;2.88;;;12.60;99.90;;;;;;20840973;28;20049;-78
2023/03/30 19:57:47;;;;;;;5.03;2.20;;;12.70;99.90;;;;;;20835237;28;20112;-77
2023/03/30 20:07:49;;;;;;;6.83;2.03;;;12.30;99.90;;;;;;20789680;28;20037;-77
2023/03/30 20:17:54;;;;;;;;;;;12.40;99.90;;;;;;20803913;28;20080;-78
2023/03/30 20:27:55;;;;;;;9.23;2.63;;;12.10;99.90;;;;;;20819922;28;19923;-77
2023/03/30 20:37:56;;;;;;;6.53;2.47;;;11.80;99.90;;;;;;20790872;28;20554;-78
2023/03/30 20:47:58;;;;;;;11.13;2.77;;;11.90;99.90;;;;;;20800562;28;20273;-78
2023/03/30 20:57:59;;;;;;;6.82;2.97;;;11.30;99.90;;;;;;20824834;28;20499;-77
2023/03/30 21:08:00;;;;;;;11.23;3.03;;;11.20;99.90;;;;;;20793149;28;20064;-77
2023/03/30 21:18:01;;;;;;;7.28;4.10;;;11.20;99.90;;;;;;20801567;28;20029;-77
2023/03/30 21:28:02;;;;;;;8.93;3.00;;;11.30;99.90;;;;;;20799625;28;20091;-77
2023/03/30 21:38:03;;;;;;;8.67;2.73;;;11.50;99.90;;;;;;20789005;28;20053;-78
2023/03/30 21:48:04;;;;;;;5.73;3.00;;;11.70;99.90;;;;;;20786100;28;20030;-78
2023/03/30 21:58:04;;;;;;;9.20;2.75;;;11.80;99.90;;;;;;20798438;28;20029;-79
2023/03/30 22:08:05;;;;;;;10.57;2.50;;;11.80;99.90;;;;;;20770863;28;20041;-78
2023/03/30 22:18:06;;;;;;;9.17;2.50;;;11.70;99.90;;;;;;20847691;28;20056;-78
2023/03/30 22:28:07;;;;;;;9.73;3.20;;;11.50;99.90;;;;;;20852981;28;20060;-78
2023/03/30 22:38:09;;;;;;;7.07;3.23;;;11.20;99.90;;;;;;20853606;28;20364;-77
2023/03/30 22:48:11;;;;;;;8.35;3.30;;;11.30;99.90;;;;;;20855343;28;20053;-78
2023/03/30 22:58:13;;;;;;;7.80;3.57;;;10.90;99.90;;;;;;20850491;28;20033;-75
2023/03/30 23:08:14;;;;;;;8.40;3.58;;;10.40;99.90;;;;;;20915027;23;20041;-83
2023/03/30 23:18:15;;;;;;;6.70;2.97;;;10.70;99.90;;;;;;20854952;28;20088;-83
2023/03/30 23:28:17;;;;;;;8.40;3.55;;;10.70;99.90;;;;;;20819772;28;20038;-80
2023/03/30 23:38:18;;;;;;;13.25;4.25;;;10.40;99.90;;;;;;20760426;28;20099;-83
2023/03/30 23:48:19;;;;;;;12.87;2.70;;;10.40;99.90;;;;;;20837167;28;20033;-80
2023/03/30 23:58:20;;;;;;;7.60;3.20;;;10.40;99.90;;;;;;20833325;28;20398;-83
